sensor_id;sensor_type;location;lat;lon;timestamp;temperature;humidity
74364;DHT22;62797;49.740;10.154;2023-12-20T00:01:22;5.10;78.00
74364;DHT22;62797;49.740;10.154;2023-12-20T00:03:48;5.10;78.30
74364;DHT22;62797;49.740;10.154;2023-12-20T00:06:14;5.10;78.30
74364;DHT22;62797;49.740;10.154;2023-12-20T00:08:40;5.10;78.60
74364;DHT22;62797;49.740;10.154;2023-12-20T00:11:05;5.10;78.40
74364;DHT22;62797;49.740;10.154;2023-12-20T00:13:31;5.10;78.70
74364;DHT22;62797;49.740;10.154;2023-12-20T00:15:57;5.10;78.80
74364;DHT22;62797;49.740;10.154;2023-12-20T00:18:23;5.10;78.90
74364;DHT22;62797;49.740;10.154;2023-12-20T00:20:48;5.10;78.80
74364;DHT22;62797;49.740;10.154;2023-12-20T00:23:14;5.00;79.20
74364;DHT22;62797;49.740;10.154;2023-12-20T00:25:40;5.10;78.70
74364;DHT22;62797;49.740;10.154;2023-12-20T00:28:06;5.00;79.00
74364;DHT22;62797;49.740;10.154;2023-12-20T00:30:32;5.00;79.60
74364;DHT22;62797;49.740;10.154;2023-12-20T00:32:57;5.00;79.50
74364;DHT22;62797;49.740;10.154;2023-12-20T00:35:23;5.00;79.40
74364;DHT22;62797;49.740;10.154;2023-12-20T00:37:49;5.00;79.50
74364;DHT22;62797;49.740;10.154;2023-12-20T00:40:15;5.00;79.60
74364;DHT22;62797;49.740;10.154;2023-12-20T00:42:41;5.00;79.90
74364;DHT22;62797;49.740;10.154;2023-12-20T00:45:06;5.00;79.80
74364;DHT22;62797;49.740;10.154;2023-12-20T00:47:32;5.00;79.70
74364;DHT22;62797;49.740;10.154;2023-12-20T00:49:58;5.00;80.20
74364;DHT22;62797;49.740;10.154;2023-12-20T00:52:24;5.00;80.20
74364;DHT22;62797;49.740;10.154;2023-12-20T00:54:50;5.00;80.10
74364;DHT22;62797;49.740;10.154;2023-12-20T00:57:16;5.00;80.10
74364;DHT22;62797;49.740;10.154;2023-12-20T00:59:41;5.00;80.20
74364;DHT22;62797;49.740;10.154;2023-12-20T01:02:07;5.00;80.50
74364;DHT22;62797;49.740;10.154;2023-12-20T01:04:34;5.00;80.30
74364;DHT22;62797;49.740;10.154;2023-12-20T01:07:00;5.00;80.30
74364;DHT22;62797;49.740;10.154;2023-12-20T01:09:25;5.00;80.50
74364;DHT22;62797;49.740;10.154;2023-12-20T01:11:54;5.00;80.50
74364;DHT22;62797;49.740;10.154;2023-12-20T01:14:20;5.00;80.30
74364;DHT22;62797;49.740;10.154;2023-12-20T01:16:46;5.10;80.00
74364;DHT22;62797;49.740;10.154;2023-12-20T01:19:12;5.00;80.40
74364;DHT22;62797;49.740;10.154;2023-12-20T01:21:39;5.00;80.50
74364;DHT22;62797;49.740;10.154;2023-12-20T01:24:04;5.00;80.60
74364;DHT22;62797;49.740;10.154;2023-12-20T01:26:30;4.90;80.70
74364;DHT22;62797;49.740;10.154;2023-12-20T01:28:55;4.90;81.30
74364;DHT22;62797;49.740;10.154;2023-12-20T01:31:21;4.90;81.20
74364;DHT22;62797;49.740;10.154;2023-12-20T01:33:47;4.90;80.70
74364;DHT22;62797;49.740;10.154;2023-12-20T01:36:17;5.00;80.60
74364;DHT22;62797;49.740;10.154;2023-12-20T01:38:43;4.90;80.40
74364;DHT22;62797;49.740;10.154;2023-12-20T01:41:09;5.00;80.50
74364;DHT22;62797;49.740;10.154;2023-12-20T01:43:34;4.90;80.80
74364;DHT22;62797;49.740;10.154;2023-12-20T01:46:00;4.90;81.00
74364;DHT22;62797;49.740;10.154;2023-12-20T01:48:27;4.90;80.30
74364;DHT22;62797;49.740;10.154;2023-12-20T01:50:54;4.90;80.90
74364;DHT22;62797;49.740;10.154;2023-12-20T01:53:20;4.90;81.20
74364;DHT22;62797;49.740;10.154;2023-12-20T01:55:48;4.90;79.70
74364;DHT22;62797;49.740;10.154;2023-12-20T01:58:14;4.80;79.90
74364;DHT22;62797;49.740;10.154;2023-12-20T02:00:40;4.90;79.20
74364;DHT22;62797;49.740;10.154;2023-12-20T02:03:06;4.80;79.60
74364;DHT22;62797;49.740;10.154;2023-12-20T02:05:34;4.80;78.40
74364;DHT22;62797;49.740;10.154;2023-12-20T02:08:00;4.80;78.00
74364;DHT22;62797;49.740;10.154;2023-12-20T02:10:26;4.80;78.20
74364;DHT22;62797;49.740;10.154;2023-12-20T02:12:52;4.80;78.50
74364;DHT22;62797;49.740;10.154;2023-12-20T02:15:18;4.70;79.30
74364;DHT22;62797;49.740;10.154;2023-12-20T02:17:44;4.70;79.80
74364;DHT22;62797;49.740;10.154;2023-12-20T02:20:11;4.70;79.80
74364;DHT22;62797;49.740;10.154;2023-12-20T02:22:36;4.70;79.80
74364;DHT22;62797;49.740;10.154;2023-12-20T02:25:02;4.70;78.90
74364;DHT22;62797;49.740;10.154;2023-12-20T02:27:29;4.70;79.40
74364;DHT22;62797;49.740;10.154;2023-12-20T02:29:55;4.70;79.50
74364;DHT22;62797;49.740;10.154;2023-12-20T02:32:21;4.70;79.80
74364;DHT22;62797;49.740;10.154;2023-12-20T02:34:50;4.70;80.00
74364;DHT22;62797;49.740;10.154;2023-12-20T02:37:16;4.60;80.00
74364;DHT22;62797;49.740;10.154;2023-12-20T02:39:41;4.60;79.40
74364;DHT22;62797;49.740;10.154;2023-12-20T02:42:07;4.60;80.00
74364;DHT22;62797;49.740;10.154;2023-12-20T02:44:33;4.60;79.80
74364;DHT22;62797;49.740;10.154;2023-12-20T02:46:58;4.60;80.40
74364;DHT22;62797;49.740;10.154;2023-12-20T02:49:24;4.70;80.10
74364;DHT22;62797;49.740;10.154;2023-12-20T02:51:49;4.60;80.10
74364;DHT22;62797;49.740;10.154;2023-12-20T02:54:15;4.60;80.40
74364;DHT22;62797;49.740;10.154;2023-12-20T02:56:41;4.70;79.20
74364;DHT22;62797;49.740;10.154;2023-12-20T02:59:07;4.60;79.30
74364;DHT22;62797;49.740;10.154;2023-12-20T03:01:34;4.60;79.40
74364;DHT22;62797;49.740;10.154;2023-12-20T03:04:00;4.60;79.90
74364;DHT22;62797;49.740;10.154;2023-12-20T03:06:26;4.50;80.40
74364;DHT22;62797;49.740;10.154;2023-12-20T03:08:52;4.50;80.80
74364;DHT22;62797;49.740;10.154;2023-12-20T03:11:17;4.60;79.70
74364;DHT22;62797;49.740;10.154;2023-12-20T03:13:43;4.50;80.10
74364;DHT22;62797;49.740;10.154;2023-12-20T03:16:12;4.50;79.90
74364;DHT22;62797;49.740;10.154;2023-12-20T03:18:40;4.50;80.50
74364;DHT22;62797;49.740;10.154;2023-12-20T03:21:06;4.40;80.50
74364;DHT22;62797;49.740;10.154;2023-12-20T03:23:32;4.40;81.00
74364;DHT22;62797;49.740;10.154;2023-12-20T03:26:00;4.40;80.50
74364;DHT22;62797;49.740;10.154;2023-12-20T03:28:27;4.40;79.80
74364;DHT22;62797;49.740;10.154;2023-12-20T03:30:52;4.40;80.20
74364;DHT22;62797;49.740;10.154;2023-12-20T03:33:18;4.40;80.50
74364;DHT22;62797;49.740;10.154;2023-12-20T03:35:44;4.40;80.00
74364;DHT22;62797;49.740;10.154;2023-12-20T03:38:09;4.40;79.10
74364;DHT22;62797;49.740;10.154;2023-12-20T03:40:35;4.40;78.90
74364;DHT22;62797;49.740;10.154;2023-12-20T03:43:01;4.40;79.10
74364;DHT22;62797;49.740;10.154;2023-12-20T03:45:27;4.30;79.30
74364;DHT22;62797;49.740;10.154;2023-12-20T03:47:52;4.30;79.60
74364;DHT22;62797;49.740;10.154;2023-12-20T03:50:25;4.30;80.00
74364;DHT22;62797;49.740;10.154;2023-12-20T03:52:50;4.30;80.40
74364;DHT22;62797;49.740;10.154;2023-12-20T03:55:16;4.30;79.40
74364;DHT22;62797;49.740;10.154;2023-12-20T03:57:42;4.30;79.80
74364;DHT22;62797;49.740;10.154;2023-12-20T04:00:08;4.30;79.70
74364;DHT22;62797;49.740;10.154;2023-12-20T04:02:41;4.30;80.10
74364;DHT22;62797;49.740;10.154;2023-12-20T04:05:07;4.40;79.80
74364;DHT22;62797;49.740;10.154;2023-12-20T04:07:33;4.30;80.20
74364;DHT22;62797;49.740;10.154;2023-12-20T04:09:59;4.30;80.20
74364;DHT22;62797;49.740;10.154;2023-12-20T04:12:29;4.20;80.70
74364;DHT22;62797;49.740;10.154;2023-12-20T04:14:55;4.30;81.00
74364;DHT22;62797;49.740;10.154;2023-12-20T04:17:20;4.20;80.50
74364;DHT22;62797;49.740;10.154;2023-12-20T04:19:51;4.20;81.00
74364;DHT22;62797;49.740;10.154;2023-12-20T04:22:18;4.30;81.30
74364;DHT22;62797;49.740;10.154;2023-12-20T04:24:44;4.30;80.10
74364;DHT22;62797;49.740;10.154;2023-12-20T04:27:10;4.20;79.50
74364;DHT22;62797;49.740;10.154;2023-12-20T04:29:36;4.20;80.00
74364;DHT22;62797;49.740;10.154;2023-12-20T04:32:02;4.30;80.10
74364;DHT22;62797;49.740;10.154;2023-12-20T04:34:27;4.20;80.10
74364;DHT22;62797;49.740;10.154;2023-12-20T04:36:53;4.20;79.70
74364;DHT22;62797;49.740;10.154;2023-12-20T04:39:19;4.20;80.00
74364;DHT22;62797;49.740;10.154;2023-12-20T04:41:45;4.20;80.20
74364;DHT22;62797;49.740;10.154;2023-12-20T04:44:13;4.20;80.40
74364;DHT22;62797;49.740;10.154;2023-12-20T04:46:39;4.20;80.60
74364;DHT22;62797;49.740;10.154;2023-12-20T04:49:05;4.30;80.40
74364;DHT22;62797;49.740;10.154;2023-12-20T04:51:33;4.30;80.10
74364;DHT22;62797;49.740;10.154;2023-12-20T04:53:59;4.30;79.40
74364;DHT22;62797;49.740;10.154;2023-12-20T04:56:25;4.30;80.40
74364;DHT22;62797;49.740;10.154;2023-12-20T04:58:50;4.30;79.90
74364;DHT22;62797;49.740;10.154;2023-12-20T05:01:16;4.30;80.10
74364;DHT22;62797;49.740;10.154;2023-12-20T05:03:42;4.30;80.10
74364;DHT22;62797;49.740;10.154;2023-12-20T05:06:09;4.40;79.70
74364;DHT22;62797;49.740;10.154;2023-12-20T05:08:35;4.30;79.10
74364;DHT22;62797;49.740;10.154;2023-12-20T05:11:01;4.30;79.80
74364;DHT22;62797;49.740;10.154;2023-12-20T05:13:27;4.30;78.30
74364;DHT22;62797;49.740;10.154;2023-12-20T05:15:52;4.40;78.80
74364;DHT22;62797;49.740;10.154;2023-12-20T05:18:18;4.30;79.20
74364;DHT22;62797;49.740;10.154;2023-12-20T05:20:44;4.30;79.30
74364;DHT22;62797;49.740;10.154;2023-12-20T05:23:09;4.30;79.10
74364;DHT22;62797;49.740;10.154;2023-12-20T05:25:37;4.40;78.60
74364;DHT22;62797;49.740;10.154;2023-12-20T05:28:02;4.40;79.30
74364;DHT22;62797;49.740;10.154;2023-12-20T05:30:28;4.40;79.20
74364;DHT22;62797;49.740;10.154;2023-12-20T05:32:53;4.30;79.40
74364;DHT22;62797;49.740;10.154;2023-12-20T05:35:19;4.40;79.60
74364;DHT22;62797;49.740;10.154;2023-12-20T05:37:45;4.40;79.90
74364;DHT22;62797;49.740;10.154;2023-12-20T05:40:11;4.40;80.00
74364;DHT22;62797;49.740;10.154;2023-12-20T05:42:37;4.40;79.80
74364;DHT22;62797;49.740;10.154;2023-12-20T05:45:04;4.30;80.00
74364;DHT22;62797;49.740;10.154;2023-12-20T05:47:30;4.40;80.40
74364;DHT22;62797;49.740;10.154;2023-12-20T05:49:56;4.40;80.60
74364;DHT22;62797;49.740;10.154;2023-12-20T05:52:21;4.50;80.00
74364;DHT22;62797;49.740;10.154;2023-12-20T05:54:47;4.50;79.80
74364;DHT22;62797;49.740;10.154;2023-12-20T05:57:13;4.40;80.00
74364;DHT22;62797;49.740;10.154;2023-12-20T05:59:39;4.40;80.60
74364;DHT22;62797;49.740;10.154;2023-12-20T06:02:05;4.40;81.30
74364;DHT22;62797;49.740;10.154;2023-12-20T06:04:31;4.40;81.10
74364;DHT22;62797;49.740;10.154;2023-12-20T06:06:56;4.40;81.10
74364;DHT22;62797;49.740;10.154;2023-12-20T06:09:22;4.40;80.40
74364;DHT22;62797;49.740;10.154;2023-12-20T06:11:48;4.40;81.00
74364;DHT22;62797;49.740;10.154;2023-12-20T06:14:13;4.40;81.50
74364;DHT22;62797;49.740;10.154;2023-12-20T06:16:39;4.40;81.40
74364;DHT22;62797;49.740;10.154;2023-12-20T06:19:05;4.40;81.60
74364;DHT22;62797;49.740;10.154;2023-12-20T06:21:30;4.40;81.60
74364;DHT22;62797;49.740;10.154;2023-12-20T06:23:59;4.40;81.50
74364;DHT22;62797;49.740;10.154;2023-12-20T06:26:25;4.40;81.90
74364;DHT22;62797;49.740;10.154;2023-12-20T06:28:51;4.30;82.20
74364;DHT22;62797;49.740;10.154;2023-12-20T06:31:16;4.40;82.90
74364;DHT22;62797;49.740;10.154;2023-12-20T06:33:43;4.40;82.20
74364;DHT22;62797;49.740;10.154;2023-12-20T06:36:12;4.40;82.10
74364;DHT22;62797;49.740;10.154;2023-12-20T06:38:38;4.40;82.30
74364;DHT22;62797;49.740;10.154;2023-12-20T06:41:04;4.40;82.30
74364;DHT22;62797;49.740;10.154;2023-12-20T06:43:30;4.40;82.20
74364;DHT22;62797;49.740;10.154;2023-12-20T06:45:56;4.40;82.70
74364;DHT22;62797;49.740;10.154;2023-12-20T06:48:22;4.40;82.60
74364;DHT22;62797;49.740;10.154;2023-12-20T06:50:48;4.40;83.00
74364;DHT22;62797;49.740;10.154;2023-12-20T06:53:13;4.40;83.10
74364;DHT22;62797;49.740;10.154;2023-12-20T06:55:39;4.40;83.10
74364;DHT22;62797;49.740;10.154;2023-12-20T06:58:04;4.40;82.90
74364;DHT22;62797;49.740;10.154;2023-12-20T07:00:31;4.40;83.10
74364;DHT22;62797;49.740;10.154;2023-12-20T07:02:57;4.40;83.20
74364;DHT22;62797;49.740;10.154;2023-12-20T07:05:23;4.50;83.50
74364;DHT22;62797;49.740;10.154;2023-12-20T07:07:48;4.40;83.40
74364;DHT22;62797;49.740;10.154;2023-12-20T07:10:14;4.40;83.30
74364;DHT22;62797;49.740;10.154;2023-12-20T07:12:40;4.50;83.20
74364;DHT22;62797;49.740;10.154;2023-12-20T07:15:06;4.50;83.60
74364;DHT22;62797;49.740;10.154;2023-12-20T07:17:33;4.60;83.20
74364;DHT22;62797;49.740;10.154;2023-12-20T07:19:59;4.60;83.30
74364;DHT22;62797;49.740;10.154;2023-12-20T07:22:29;4.60;83.30
74364;DHT22;62797;49.740;10.154;2023-12-20T07:24:57;4.60;83.80
74364;DHT22;62797;49.740;10.154;2023-12-20T07:27:23;4.50;83.70
74364;DHT22;62797;49.740;10.154;2023-12-20T07:29:48;4.60;83.20
74364;DHT22;62797;49.740;10.154;2023-12-20T07:32:14;4.70;83.60
74364;DHT22;62797;49.740;10.154;2023-12-20T07:34:40;4.70;83.50
74364;DHT22;62797;49.740;10.154;2023-12-20T07:37:06;4.70;83.50
74364;DHT22;62797;49.740;10.154;2023-12-20T07:39:32;4.80;82.00
74364;DHT22;62797;49.740;10.154;2023-12-20T07:41:57;4.80;80.60
74364;DHT22;62797;49.740;10.154;2023-12-20T07:44:23;4.80;80.80
74364;DHT22;62797;49.740;10.154;2023-12-20T07:46:49;4.70;81.00
74364;DHT22;62797;49.740;10.154;2023-12-20T07:49:15;4.70;80.80
74364;DHT22;62797;49.740;10.154;2023-12-20T07:51:41;4.50;81.10
74364;DHT22;62797;49.740;10.154;2023-12-20T07:54:06;4.50;80.70
74364;DHT22;62797;49.740;10.154;2023-12-20T07:56:35;4.40;80.30
74364;DHT22;62797;49.740;10.154;2023-12-20T07:59:01;4.40;80.60
74364;DHT22;62797;49.740;10.154;2023-12-20T08:01:27;4.40;81.40
74364;DHT22;62797;49.740;10.154;2023-12-20T08:03:52;4.40;79.50
74364;DHT22;62797;49.740;10.154;2023-12-20T08:06:18;4.40;79.80
74364;DHT22;62797;49.740;10.154;2023-12-20T08:08:44;4.50;79.30
74364;DHT22;62797;49.740;10.154;2023-12-20T08:11:09;4.40;79.90
74364;DHT22;62797;49.740;10.154;2023-12-20T08:13:35;4.40;80.30
74364;DHT22;62797;49.740;10.154;2023-12-20T08:16:00;4.40;80.40
74364;DHT22;62797;49.740;10.154;2023-12-20T08:18:28;4.30;80.40
74364;DHT22;62797;49.740;10.154;2023-12-20T08:20:54;4.40;79.30
74364;DHT22;62797;49.740;10.154;2023-12-20T08:23:20;4.30;79.80
74364;DHT22;62797;49.740;10.154;2023-12-20T08:25:46;4.20;80.40
74364;DHT22;62797;49.740;10.154;2023-12-20T08:28:13;4.20;80.20
74364;DHT22;62797;49.740;10.154;2023-12-20T08:30:39;4.30;79.90
74364;DHT22;62797;49.740;10.154;2023-12-20T08:33:06;4.20;80.00
74364;DHT22;62797;49.740;10.154;2023-12-20T08:35:36;4.20;80.20
74364;DHT22;62797;49.740;10.154;2023-12-20T08:38:02;4.20;79.00
74364;DHT22;62797;49.740;10.154;2023-12-20T08:40:29;4.20;79.30
74364;DHT22;62797;49.740;10.154;2023-12-20T08:42:55;4.20;79.90
74364;DHT22;62797;49.740;10.154;2023-12-20T08:45:22;4.20;80.10
74364;DHT22;62797;49.740;10.154;2023-12-20T08:47:48;4.20;80.20
74364;DHT22;62797;49.740;10.154;2023-12-20T08:50:13;4.20;79.80
74364;DHT22;62797;49.740;10.154;2023-12-20T08:52:40;4.20;79.30
74364;DHT22;62797;49.740;10.154;2023-12-20T08:55:06;4.40;78.00
74364;DHT22;62797;49.740;10.154;2023-12-20T08:57:32;4.40;78.60
74364;DHT22;62797;49.740;10.154;2023-12-20T08:59:59;4.40;78.50
74364;DHT22;62797;49.740;10.154;2023-12-20T09:02:25;4.40;78.20
74364;DHT22;62797;49.740;10.154;2023-12-20T09:04:59;4.40;78.40
74364;DHT22;62797;49.740;10.154;2023-12-20T09:07:26;4.40;78.60
74364;DHT22;62797;49.740;10.154;2023-12-20T09:09:53;4.50;78.50
74364;DHT22;62797;49.740;10.154;2023-12-20T09:12:19;4.60;79.10
74364;DHT22;62797;49.740;10.154;2023-12-20T09:14:49;4.70;78.00
74364;DHT22;62797;49.740;10.154;2023-12-20T09:17:16;4.70;77.10
74364;DHT22;62797;49.740;10.154;2023-12-20T09:19:43;4.70;77.10
74364;DHT22;62797;49.740;10.154;2023-12-20T09:22:12;4.70;77.50
74364;DHT22;62797;49.740;10.154;2023-12-20T09:24:38;4.80;74.70
74364;DHT22;62797;49.740;10.154;2023-12-20T09:27:06;4.80;74.70
74364;DHT22;62797;49.740;10.154;2023-12-20T09:29:32;4.80;72.80
74364;DHT22;62797;49.740;10.154;2023-12-20T09:32:00;4.70;74.60
74364;DHT22;62797;49.740;10.154;2023-12-20T09:34:25;4.80;73.40
74364;DHT22;62797;49.740;10.154;2023-12-20T09:36:52;4.80;74.00
74364;DHT22;62797;49.740;10.154;2023-12-20T09:39:19;4.80;73.00
74364;DHT22;62797;49.740;10.154;2023-12-20T09:41:51;4.80;74.30
74364;DHT22;62797;49.740;10.154;2023-12-20T09:44:22;4.90;74.30
74364;DHT22;62797;49.740;10.154;2023-12-20T09:46:50;4.80;74.50
74364;DHT22;62797;49.740;10.154;2023-12-20T09:49:19;4.80;74.60
74364;DHT22;62797;49.740;10.154;2023-12-20T09:51:50;4.90;74.70
74364;DHT22;62797;49.740;10.154;2023-12-20T09:54:17;5.10;74.20
74364;DHT22;62797;49.740;10.154;2023-12-20T09:56:43;5.20;73.10
74364;DHT22;62797;49.740;10.154;2023-12-20T09:59:14;5.20;72.30
74364;DHT22;62797;49.740;10.154;2023-12-20T10:01:43;5.40;72.60
74364;DHT22;62797;49.740;10.154;2023-12-20T10:04:10;5.50;71.60
74364;DHT22;62797;49.740;10.154;2023-12-20T10:06:41;5.60;71.00
74364;DHT22;62797;49.740;10.154;2023-12-20T10:09:07;5.60;69.30
74364;DHT22;62797;49.740;10.154;2023-12-20T10:11:35;5.60;69.70
74364;DHT22;62797;49.740;10.154;2023-12-20T10:14:03;5.60;69.20
74364;DHT22;62797;49.740;10.154;2023-12-20T10:16:29;5.60;68.10
74364;DHT22;62797;49.740;10.154;2023-12-20T10:18:55;5.60;68.20
74364;DHT22;62797;49.740;10.154;2023-12-20T10:21:25;5.70;67.10
74364;DHT22;62797;49.740;10.154;2023-12-20T10:23:54;5.90;65.00
74364;DHT22;62797;49.740;10.154;2023-12-20T10:26:21;5.90;66.50
74364;DHT22;62797;49.740;10.154;2023-12-20T10:28:51;6.00;65.60
74364;DHT22;62797;49.740;10.154;2023-12-20T10:31:27;6.00;64.40
74364;DHT22;62797;49.740;10.154;2023-12-20T10:33:55;5.90;65.60
74364;DHT22;62797;49.740;10.154;2023-12-20T10:36:21;6.00;64.50
74364;DHT22;62797;49.740;10.154;2023-12-20T10:38:50;5.90;64.10
74364;DHT22;62797;49.740;10.154;2023-12-20T10:41:20;5.90;65.70
74364;DHT22;62797;49.740;10.154;2023-12-20T10:43:48;5.90;63.30
74364;DHT22;62797;49.740;10.154;2023-12-20T10:46:15;5.70;63.50
74364;DHT22;62797;49.740;10.154;2023-12-20T10:48:41;5.80;62.00
74364;DHT22;62797;49.740;10.154;2023-12-20T10:51:08;5.80;63.40
74364;DHT22;62797;49.740;10.154;2023-12-20T10:53:35;6.00;66.60
74364;DHT22;62797;49.740;10.154;2023-12-20T10:56:02;6.10;62.00
74364;DHT22;62797;49.740;10.154;2023-12-20T10:58:32;6.20;62.80
74364;DHT22;62797;49.740;10.154;2023-12-20T11:01:00;6.20;60.70
74364;DHT22;62797;49.740;10.154;2023-12-20T11:03:35;6.30;60.20
74364;DHT22;62797;49.740;10.154;2023-12-20T11:06:26;6.30;59.80
74364;DHT22;62797;49.740;10.154;2023-12-20T11:11:48;6.20;61.80
74364;DHT22;62797;49.740;10.154;2023-12-20T11:14:22;6.20;60.60
74364;DHT22;62797;49.740;10.154;2023-12-20T11:16:49;6.20;60.00
74364;DHT22;62797;49.740;10.154;2023-12-20T11:19:16;6.20;60.60
74364;DHT22;62797;49.740;10.154;2023-12-20T11:21:42;6.30;60.70
74364;DHT22;62797;49.740;10.154;2023-12-20T11:24:09;6.40;61.50
74364;DHT22;62797;49.740;10.154;2023-12-20T11:26:35;6.50;61.30
74364;DHT22;62797;49.740;10.154;2023-12-20T11:29:29;6.60;59.70
74364;DHT22;62797;49.740;10.154;2023-12-20T11:31:55;6.50;59.00
74364;DHT22;62797;49.740;10.154;2023-12-20T11:34:21;6.50;57.40
74364;DHT22;62797;49.740;10.154;2023-12-20T11:36:47;6.50;57.60
74364;DHT22;62797;49.740;10.154;2023-12-20T11:39:20;6.40;56.30
74364;DHT22;62797;49.740;10.154;2023-12-20T11:41:46;6.50;57.80
74364;DHT22;62797;49.740;10.154;2023-12-20T11:44:13;6.50;57.50
74364;DHT22;62797;49.740;10.154;2023-12-20T11:46:39;6.60;59.00
74364;DHT22;62797;49.740;10.154;2023-12-20T11:49:04;6.60;57.00
74364;DHT22;62797;49.740;10.154;2023-12-20T11:51:30;6.90;54.90
74364;DHT22;62797;49.740;10.154;2023-12-20T11:53:56;6.90;53.10
74364;DHT22;62797;49.740;10.154;2023-12-20T11:56:21;6.90;51.90
74364;DHT22;62797;49.740;10.154;2023-12-20T11:58:47;6.90;51.80
74364;DHT22;62797;49.740;10.154;2023-12-20T12:01:14;6.80;52.20
74364;DHT22;62797;49.740;10.154;2023-12-20T12:03:39;6.70;53.80
74364;DHT22;62797;49.740;10.154;2023-12-20T12:06:06;6.80;52.00
74364;DHT22;62797;49.740;10.154;2023-12-20T12:08:33;6.80;52.20
74364;DHT22;62797;49.740;10.154;2023-12-20T12:10:59;6.80;53.60
74364;DHT22;62797;49.740;10.154;2023-12-20T12:13:24;6.70;52.80
74364;DHT22;62797;49.740;10.154;2023-12-20T12:15:53;6.70;52.50
74364;DHT22;62797;49.740;10.154;2023-12-20T12:18:19;6.60;53.10
74364;DHT22;62797;49.740;10.154;2023-12-20T12:20:44;6.60;52.70
74364;DHT22;62797;49.740;10.154;2023-12-20T12:23:11;6.70;50.80
74364;DHT22;62797;49.740;10.154;2023-12-20T12:25:36;6.60;53.60
74364;DHT22;62797;49.740;10.154;2023-12-20T12:28:03;6.70;52.70
74364;DHT22;62797;49.740;10.154;2023-12-20T12:30:29;6.70;51.10
74364;DHT22;62797;49.740;10.154;2023-12-20T12:32:57;6.70;50.00
74364;DHT22;62797;49.740;10.154;2023-12-20T12:35:23;6.60;52.50
74364;DHT22;62797;49.740;10.154;2023-12-20T12:37:49;6.60;53.00
74364;DHT22;62797;49.740;10.154;2023-12-20T12:40:16;6.60;52.70
74364;DHT22;62797;49.740;10.154;2023-12-20T12:42:44;6.80;51.20
74364;DHT22;62797;49.740;10.154;2023-12-20T12:45:10;6.80;50.60
74364;DHT22;62797;49.740;10.154;2023-12-20T12:47:37;6.80;49.80
74364;DHT22;62797;49.740;10.154;2023-12-20T12:50:03;6.70;51.40
74364;DHT22;62797;49.740;10.154;2023-12-20T12:52:30;6.70;51.60
74364;DHT22;62797;49.740;10.154;2023-12-20T12:54:56;6.60;52.10
74364;DHT22;62797;49.740;10.154;2023-12-20T12:57:23;6.50;52.70
74364;DHT22;62797;49.740;10.154;2023-12-20T12:59:49;6.60;51.50
74364;DHT22;62797;49.740;10.154;2023-12-20T13:02:15;6.50;52.10
74364;DHT22;62797;49.740;10.154;2023-12-20T13:04:41;6.60;50.00
74364;DHT22;62797;49.740;10.154;2023-12-20T13:07:08;6.60;49.20
74364;DHT22;62797;49.740;10.154;2023-12-20T13:09:36;6.50;48.30
74364;DHT22;62797;49.740;10.154;2023-12-20T13:12:02;6.50;50.50
74364;DHT22;62797;49.740;10.154;2023-12-20T13:14:35;6.40;50.40
74364;DHT22;62797;49.740;10.154;2023-12-20T13:17:02;6.50;50.30
74364;DHT22;62797;49.740;10.154;2023-12-20T13:19:29;6.40;50.50
74364;DHT22;62797;49.740;10.154;2023-12-20T13:21:55;6.50;50.90
74364;DHT22;62797;49.740;10.154;2023-12-20T13:24:21;6.50;49.30
74364;DHT22;62797;49.740;10.154;2023-12-20T13:26:47;6.50;50.30
74364;DHT22;62797;49.740;10.154;2023-12-20T13:29:12;6.40;50.90
74364;DHT22;62797;49.740;10.154;2023-12-20T13:31:39;6.40;51.10
74364;DHT22;62797;49.740;10.154;2023-12-20T13:34:06;6.40;50.80
74364;DHT22;62797;49.740;10.154;2023-12-20T13:36:32;6.30;50.70
74364;DHT22;62797;49.740;10.154;2023-12-20T13:38:57;6.20;51.30
74364;DHT22;62797;49.740;10.154;2023-12-20T13:41:23;6.20;51.60
74364;DHT22;62797;49.740;10.154;2023-12-20T13:43:49;6.20;51.40
74364;DHT22;62797;49.740;10.154;2023-12-20T13:46:14;6.20;52.60
74364;DHT22;62797;49.740;10.154;2023-12-20T13:48:40;6.20;51.90
74364;DHT22;62797;49.740;10.154;2023-12-20T13:51:07;6.30;50.30
74364;DHT22;62797;49.740;10.154;2023-12-20T13:53:33;6.30;50.90
74364;DHT22;62797;49.740;10.154;2023-12-20T13:55:58;6.30;51.60
74364;DHT22;62797;49.740;10.154;2023-12-20T13:58:25;6.30;52.20
74364;DHT22;62797;49.740;10.154;2023-12-20T14:00:51;6.40;52.70
74364;DHT22;62797;49.740;10.154;2023-12-20T14:03:16;6.30;54.40
74364;DHT22;62797;49.740;10.154;2023-12-20T14:05:43;6.10;55.50
74364;DHT22;62797;49.740;10.154;2023-12-20T14:08:08;6.20;56.30
74364;DHT22;62797;49.740;10.154;2023-12-20T14:10:35;6.10;57.10
74364;DHT22;62797;49.740;10.154;2023-12-20T14:13:01;6.10;57.60
74364;DHT22;62797;49.740;10.154;2023-12-20T14:15:26;6.00;58.60
74364;DHT22;62797;49.740;10.154;2023-12-20T14:17:52;6.00;58.60
74364;DHT22;62797;49.740;10.154;2023-12-20T14:20:18;6.00;58.30
74364;DHT22;62797;49.740;10.154;2023-12-20T14:22:44;6.00;58.00
74364;DHT22;62797;49.740;10.154;2023-12-20T14:25:13;6.00;58.50
74364;DHT22;62797;49.740;10.154;2023-12-20T14:27:40;6.10;58.70
74364;DHT22;62797;49.740;10.154;2023-12-20T14:30:06;6.20;56.90
74364;DHT22;62797;49.740;10.154;2023-12-20T14:32:34;6.20;56.20
74364;DHT22;62797;49.740;10.154;2023-12-20T14:35:02;6.10;56.20
74364;DHT22;62797;49.740;10.154;2023-12-20T14:37:29;6.00;56.60
74364;DHT22;62797;49.740;10.154;2023-12-20T14:39:55;5.90;57.50
74364;DHT22;62797;49.740;10.154;2023-12-20T14:42:21;6.00;57.70
74364;DHT22;62797;49.740;10.154;2023-12-20T14:44:48;6.20;57.70
74364;DHT22;62797;49.740;10.154;2023-12-20T14:47:13;6.30;56.80
74364;DHT22;62797;49.740;10.154;2023-12-20T14:49:40;6.20;57.10
74364;DHT22;62797;49.740;10.154;2023-12-20T14:52:06;6.10;57.60
74364;DHT22;62797;49.740;10.154;2023-12-20T14:54:32;6.20;57.80
74364;DHT22;62797;49.740;10.154;2023-12-20T14:56:59;6.30;57.10
74364;DHT22;62797;49.740;10.154;2023-12-20T14:59:24;6.10;57.40
74364;DHT22;62797;49.740;10.154;2023-12-20T15:01:50;6.10;57.40
74364;DHT22;62797;49.740;10.154;2023-12-20T15:04:16;6.00;58.00
74364;DHT22;62797;49.740;10.154;2023-12-20T15:06:43;5.90;58.50
74364;DHT22;62797;49.740;10.154;2023-12-20T15:09:10;5.80;58.90
74364;DHT22;62797;49.740;10.154;2023-12-20T15:11:36;5.70;58.90
74364;DHT22;62797;49.740;10.154;2023-12-20T15:14:02;5.70;59.50
74364;DHT22;62797;49.740;10.154;2023-12-20T15:16:28;5.80;59.00
74364;DHT22;62797;49.740;10.154;2023-12-20T15:18:54;5.80;59.10
74364;DHT22;62797;49.740;10.154;2023-12-20T15:21:20;5.70;59.80
74364;DHT22;62797;49.740;10.154;2023-12-20T15:23:55;5.60;60.50
74364;DHT22;62797;49.740;10.154;2023-12-20T15:26:38;5.60;60.00
74364;DHT22;62797;49.740;10.154;2023-12-20T15:29:06;5.70;59.80